Iver Foss — WYE6442 — position and weather

sailwx.info

Track history (hours):
 
Tides and Currents Weather Stations Pressure Air Temp Water Temp Dewpoint Dewpoint Depression Visibility Wind Speed Wind Dir Waves Ship Positions

Iver Foss

Owner: FOSS MARITIME CO, SEATTLE, WA. More information available from US FCC via Universal Licensing System and Coast Guard Vessel Documentation Center.

Last reported at 2017-Jun-26 00:00 UTC. Time now 2017-Aug-18 01:02 UTC.
Position N 63°00' W 168°18'.
Warning: this ship's position is 53 days out of date.

Type: Towing. MMSI: 368351000.

Wind from 140 at 15 knots

Barometer 1008.0 mb
Air temperature 9.0 ° C
Visibility: greater than 5.4 NM
Water temperature 7.7 ° C

Date/timePositionNaut miles runAvg speedWind from/ knotsBaromVisibWave heightAir tempDewpointWater temp
2017-Jun-26 00:00N 63°00' W 168°18'77625.9 140 / 151008.0 5.4 9.0 7.7
2017-Jun-24 18:00N 56°30' W 146°06'59699.3 230 / 121020.7 5.4 10.8
2017-Jun-24 12:00N 56°30' W 164°06'   240 / 121025.3 5.4 11.0
2017-Jun-21 00:00N 54°48' W 142°42'   240 / 51010.0 5.4 11.2
2017-Jun-18 17:02N 52°27' W 128°28'010.1
2017-Jun-18 17:00N 52°27' W 128°28'21 6.3
2017-Jun-18 13:42N 52°10' W 128°08'2 7.7
2017-Jun-18 13:29N 52°08' W 128°08'4 7.1
2017-Jun-18 12:56N 52°05' W 128°06'6 7.6
2017-Jun-18 12:05N 52°03' W 127°55'1 7.7
2017-Jun-18 11:59N 52°03' W 127°55'4 7.7
2017-Jun-18 11:30N 51°59' W 127°56'4 7.7
2017-Jun-18 11:00N 51°55' W 127°56'4 7.7
2017-Jun-18 10:30N 51°51' W 127°56'4 7.7
2017-Jun-18 10:00N 51°47' W 127°56'4 7.8
2017-Jun-18 09:30N 51°43' W 127°56'4 7.6
2017-Jun-18 09:00N 51°40' W 127°55'4 7.7
2017-Jun-18 08:30N 51°36' W 127°53'4 7.4
2017-Jun-18 08:00N 51°32' W 127°52'510.0
2017-Jun-18 07:29N 51°27' W 127°51'510.1
2017-Jun-18 06:59N 51°22' W 127°52'11110.0
2017-Jun-17 19:54N 50°20' W 125°26'611.1
2017-Jun-17 19:22N 50°15' W 125°23'411.3
2017-Jun-17 19:00N 50°11' W 125°22'4 8.3
2017-Jun-17 18:31N 50°07' W 125°19'2 4.5
2017-Jun-17 18:00N 50°05' W 125°16'2 4.8
2017-Jun-17 17:30N 50°03' W 125°14'3 5.0
2017-Jun-17 17:00N 50°01' W 125°12'3 5.4
2017-Jun-17 16:30N 49°59' W 125°10'4 7.7
2017-Jun-17 16:00N 49°56' W 125°06'5 9.2
2017-Jun-17 15:30N 49°54' W 125°00'5 9.3
2017-Jun-17 15:00N 49°51' W 124°54'5 9.6
2017-Jun-17 14:30N 49°48' W 124°49'10 9.5
2017-Jun-17 13:29N 49°41' W 124°37'5 9.6
2017-Jun-17 12:58N 49°38' W 124°32'4 8.8
2017-Jun-17 12:30N 49°36' W 124°27'4 8.6
2017-Jun-17 12:00N 49°34' W 124°20'36 9.9
2017-Jun-17 08:22N 49°12' W 123°36'411.5
2017-Jun-17 08:00N 49°09' W 123°31'511.1
2017-Jun-17 07:30N 49°06' W 123°24'3610.8
2017-Jun-17 04:11N 48°43' W 122°44'211.4
2017-Jun-17 04:01N 48°41' W 122°42'510.5
2017-Jun-17 03:30N 48°36' W 122°45'612.6
2017-Jun-17 03:00N 48°30' W 122°44'30 9.1
2017-Jun-16 23:43N 48°00' W 122°36'210.8
2017-Jun-16 23:30N 47°58' W 122°34'510.6
2017-Jun-16 23:00N 47°55' W 122°28'611.3
2017-Jun-16 22:30N 47°49' W 122°27'611.3
2017-Jun-16 22:00N 47°44' W 122°26'510.6
2017-Jun-16 21:30N 47°38' W 122°26'2 4.0
2017-Jun-16 21:00N 47°38' W 122°23'0 0.0
2017-Jun-16 20:30N 47°38' W 122°23'0 0.0
2017-Jun-16 20:00N 47°38' W 122°23'0 0.0
2017-Jun-16 19:30N 47°38' W 122°23'0 0.0
2017-Jun-16 19:00N 47°38' W 122°23'0 0.0
2017-Jun-16 18:30N 47°38' W 122°23'0 0.0
2017-Jun-16 18:00N 47°38' W 122°23'0 0.0
2017-Jun-16 17:30N 47°38' W 122°23'0 0.0
2017-Jun-16 17:00N 47°38' W 122°23'0 0.0
2017-Jun-16 16:30N 47°38' W 122°23'0 0.0
2017-Jun-16 16:00N 47°38' W 122°23'0 0.0
2017-Jun-16 15:30N 47°38' W 122°23'0 0.0
2017-Jun-16 15:00N 47°38' W 122°23'0 0.0
2017-Jun-16 14:30N 47°38' W 122°23'0 0.0
2017-Jun-16 13:31N 47°38' W 122°23'0 0.0
2017-Jun-16 13:00N 47°38' W 122°23'0 0.0
2017-Jun-16 12:30N 47°38' W 122°23'0 0.0
2017-Jun-16 12:00N 47°38' W 122°23'0 0.0
2017-Jun-16 11:30N 47°38' W 122°23'0 0.0
2017-Jun-16 11:00N 47°38' W 122°23'0 0.0
2017-Jun-16 10:31N 47°38' W 122°23'0 0.0
2017-Jun-16 10:01N 47°38' W 122°23'0 0.0
2017-Jun-16 09:31N 47°38' W 122°23'0 0.0
2017-Jun-16 09:00N 47°38' W 122°23'0 0.0
2017-Jun-16 08:30N 47°38' W 122°23'0 0.0
2017-Jun-16 08:00N 47°38' W 122°23'0 0.0
2017-Jun-16 07:30N 47°38' W 122°23'0 0.0
2017-Jun-16 07:00N 47°38' W 122°23'0 0.0
2017-Jun-16 06:31N 47°38' W 122°23'0 0.0
2017-Jun-16 06:00N 47°38' W 122°23'0 0.0
2017-Jun-16 05:31N 47°38' W 122°23'0 0.0
2017-Jun-16 05:00N 47°38' W 122°23'0 0.0
2017-Jun-16 04:30N 47°38' W 122°23'0 0.0
2017-Jun-16 04:01N 47°38' W 122°23'0 0.0
2017-Jun-16 03:31N 47°38' W 122°23'2 3.8
2017-Jun-16 03:00N 47°36' W 122°22'1 1.3
2017-Jun-16 02:30N 47°36' W 122°23'2 3.3
2017-Jun-16 02:01N 47°38' W 122°23'0 0.0
2017-Jun-16 01:30N 47°38' W 122°23'0 0.0
2017-Jun-16 01:01N 47°38' W 122°23'0 0.0
2017-Jun-16 00:30N 47°38' W 122°23'0 0.0
2017-Jun-16 00:00N 47°38' W 122°23'  
Track history (hours):
 
Tides and Currents Weather Stations Pressure Air Temp Water Temp Dewpoint Dewpoint Depression Visibility Wind Speed Wind Dir Waves Ship Positions

Iver Foss

Owner: FOSS MARITIME CO, SEATTLE, WA. More information available from US FCC via Universal Licensing System and Coast Guard Vessel Documentation Center.

Last reported at 2017-Jun-26 00:00 UTC. Time now 2017-Aug-18 01:02 UTC.
Position N 63°00' W 168°18'.
Warning: this ship's position is 53 days out of date.

Type: Towing. MMSI: 368351000.

Wind from 140 at 15 knots

Barometer 1008.0 mb
Air temperature 9.0 ° C
Visibility: greater than 5.4 NM
Water temperature 7.7 ° C

Date/timePositionNaut miles runAvg speedWind from/ knotsBaromVisibWave heightAir tempDewpointWater temp
2017-Jun-26 00:00N 63°00' W 168°18'77625.9 140 / 151008.0 5.4 9.0 7.7
2017-Jun-24 18:00N 56°30' W 146°06'59699.3 230 / 121020.7 5.4 10.8
2017-Jun-24 12:00N 56°30' W 164°06'   240 / 121025.3 5.4 11.0
2017-Jun-21 00:00N 54°48' W 142°42'   240 / 51010.0 5.4 11.2
2017-Jun-18 17:02N 52°27' W 128°28'010.1
2017-Jun-18 17:00N 52°27' W 128°28'21 6.3
2017-Jun-18 13:42N 52°10' W 128°08'2 7.7
2017-Jun-18 13:29N 52°08' W 128°08'4 7.1
2017-Jun-18 12:56N 52°05' W 128°06'6 7.6
2017-Jun-18 12:05N 52°03' W 127°55'1 7.7
2017-Jun-18 11:59N 52°03' W 127°55'4 7.7
2017-Jun-18 11:30N 51°59' W 127°56'4 7.7
2017-Jun-18 11:00N 51°55' W 127°56'4 7.7
2017-Jun-18 10:30N 51°51' W 127°56'4 7.7
2017-Jun-18 10:00N 51°47' W 127°56'4 7.8
2017-Jun-18 09:30N 51°43' W 127°56'4 7.6
2017-Jun-18 09:00N 51°40' W 127°55'4 7.7
2017-Jun-18 08:30N 51°36' W 127°53'4 7.4
2017-Jun-18 08:00N 51°32' W 127°52'510.0
2017-Jun-18 07:29N 51°27' W 127°51'510.1
2017-Jun-18 06:59N 51°22' W 127°52'11110.0
2017-Jun-17 19:54N 50°20' W 125°26'611.1
2017-Jun-17 19:22N 50°15' W 125°23'411.3
2017-Jun-17 19:00N 50°11' W 125°22'4 8.3
2017-Jun-17 18:31N 50°07' W 125°19'2 4.5
2017-Jun-17 18:00N 50°05' W 125°16'2 4.8
2017-Jun-17 17:30N 50°03' W 125°14'3 5.0
2017-Jun-17 17:00N 50°01' W 125°12'3 5.4
2017-Jun-17 16:30N 49°59' W 125°10'4 7.7
2017-Jun-17 16:00N 49°56' W 125°06'5 9.2
2017-Jun-17 15:30N 49°54' W 125°00'5 9.3
2017-Jun-17 15:00N 49°51' W 124°54'5 9.6
2017-Jun-17 14:30N 49°48' W 124°49'10 9.5
2017-Jun-17 13:29N 49°41' W 124°37'5 9.6
2017-Jun-17 12:58N 49°38' W 124°32'4 8.8
2017-Jun-17 12:30N 49°36' W 124°27'4 8.6
2017-Jun-17 12:00N 49°34' W 124°20'36 9.9
2017-Jun-17 08:22N 49°12' W 123°36'411.5
2017-Jun-17 08:00N 49°09' W 123°31'511.1
2017-Jun-17 07:30N 49°06' W 123°24'3610.8
2017-Jun-17 04:11N 48°43' W 122°44'211.4
2017-Jun-17 04:01N 48°41' W 122°42'510.5
2017-Jun-17 03:30N 48°36' W 122°45'612.6
2017-Jun-17 03:00N 48°30' W 122°44'30 9.1
2017-Jun-16 23:43N 48°00' W 122°36'210.8
2017-Jun-16 23:30N 47°58' W 122°34'510.6
2017-Jun-16 23:00N 47°55' W 122°28'611.3
2017-Jun-16 22:30N 47°49' W 122°27'611.3
2017-Jun-16 22:00N 47°44' W 122°26'510.6
2017-Jun-16 21:30N 47°38' W 122°26'2 4.0
2017-Jun-16 21:00N 47°38' W 122°23'0 0.0
2017-Jun-16 20:30N 47°38' W 122°23'0 0.0
2017-Jun-16 20:00N 47°38' W 122°23'0 0.0
2017-Jun-16 19:30N 47°38' W 122°23'0 0.0
2017-Jun-16 19:00N 47°38' W 122°23'0 0.0
2017-Jun-16 18:30N 47°38' W 122°23'0 0.0
2017-Jun-16 18:00N 47°38' W 122°23'0 0.0
2017-Jun-16 17:30N 47°38' W 122°23'0 0.0
2017-Jun-16 17:00N 47°38' W 122°23'0 0.0
2017-Jun-16 16:30N 47°38' W 122°23'0 0.0
2017-Jun-16 16:00N 47°38' W 122°23'0 0.0
2017-Jun-16 15:30N 47°38' W 122°23'0 0.0
2017-Jun-16 15:00N 47°38' W 122°23'0 0.0
2017-Jun-16 14:30N 47°38' W 122°23'0 0.0
2017-Jun-16 13:31N 47°38' W 122°23'0 0.0
2017-Jun-16 13:00N 47°38' W 122°23'0 0.0
2017-Jun-16 12:30N 47°38' W 122°23'0 0.0
2017-Jun-16 12:00N 47°38' W 122°23'0 0.0
2017-Jun-16 11:30N 47°38' W 122°23'0 0.0
2017-Jun-16 11:00N 47°38' W 122°23'0 0.0
2017-Jun-16 10:31N 47°38' W 122°23'0 0.0
2017-Jun-16 10:01N 47°38' W 122°23'0 0.0
2017-Jun-16 09:31N 47°38' W 122°23'0 0.0
2017-Jun-16 09:00N 47°38' W 122°23'0 0.0
2017-Jun-16 08:30N 47°38' W 122°23'0 0.0
2017-Jun-16 08:00N 47°38' W 122°23'0 0.0
2017-Jun-16 07:30N 47°38' W 122°23'0 0.0
2017-Jun-16 07:00N 47°38' W 122°23'0 0.0
2017-Jun-16 06:31N 47°38' W 122°23'0 0.0
2017-Jun-16 06:00N 47°38' W 122°23'0 0.0
2017-Jun-16 05:31N 47°38' W 122°23'0 0.0
2017-Jun-16 05:00N 47°38' W 122°23'0 0.0
2017-Jun-16 04:30N 47°38' W 122°23'0 0.0
2017-Jun-16 04:01N 47°38' W 122°23'0 0.0
2017-Jun-16 03:31N 47°38' W 122°23'2 3.8
2017-Jun-16 03:00N 47°36' W 122°22'1 1.3
2017-Jun-16 02:30N 47°36' W 122°23'2 3.3
2017-Jun-16 02:01N 47°38' W 122°23'0 0.0
2017-Jun-16 01:30N 47°38' W 122°23'0 0.0
2017-Jun-16 01:01N 47°38' W 122°23'0 0.0
2017-Jun-16 00:30N 47°38' W 122°23'0 0.0
2017-Jun-16 00:00N 47°38' W 122°23'  

Dump ship's entire track history